createdAt,value
2022-12-19T00:01:58.736Z,77
2022-12-19T00:12:06.705Z,78
2022-12-19T00:22:13.073Z,79
2022-12-19T00:32:21.200Z,79
2022-12-19T00:42:29.346Z,79
2022-12-19T00:52:37.496Z,79
2022-12-19T01:02:45.522Z,79
2022-12-19T01:12:53.587Z,79
2022-12-19T01:23:01.230Z,78
2022-12-19T01:33:10.321Z,78
2022-12-19T01:43:18.335Z,78
2022-12-19T01:53:26.491Z,78
2022-12-19T02:03:34.476Z,78
2022-12-19T02:13:42.028Z,78
2022-12-19T02:23:49.197Z,78
2022-12-19T02:33:56.896Z,78
2022-12-19T02:44:04.872Z,78
2022-12-19T02:54:12.894Z,78
2022-12-19T03:04:20.879Z,79
2022-12-19T03:14:28.851Z,79
2022-12-19T03:24:36.799Z,79
2022-12-19T03:34:44.756Z,79
2022-12-19T03:44:52.556Z,79
2022-12-19T03:55:00.515Z,78
2022-12-19T04:05:08.617Z,79
2022-12-19T04:15:16.578Z,79
2022-12-19T04:25:27.832Z,79
2022-12-19T04:35:31.095Z,79
2022-12-19T04:45:38.346Z,79
2022-12-19T04:55:45.894Z,80
2022-12-19T05:05:53.848Z,80
2022-12-19T05:16:01.870Z,80
2022-12-19T05:26:09.790Z,81
2022-12-19T05:36:17.920Z,81
2022-12-19T05:46:25.670Z,82
2022-12-19T05:56:33.610Z,79
2022-12-19T06:06:41.699Z,79
2022-12-19T06:16:49.884Z,80
2022-12-19T06:26:57.817Z,80
2022-12-19T06:37:08.221Z,80
2022-12-19T06:47:14.040Z,80
2022-12-19T06:57:22.320Z,81
2022-12-19T07:07:30.632Z,81
2022-12-19T07:17:38.616Z,81
2022-12-19T07:27:46.918Z,80
2022-12-19T07:37:54.527Z,79
2022-12-19T07:48:02.816Z,80
2022-12-19T07:58:11.125Z,80
2022-12-19T08:08:19.284Z,78
2022-12-19T08:18:27.486Z,78
2022-12-19T08:28:37.089Z,76
2022-12-19T08:38:38.698Z,72
2022-12-19T08:48:38.250Z,68
2022-12-19T08:58:39.484Z,68
2022-12-19T09:08:47.876Z,67
2022-12-19T09:18:55.055Z,66
2022-12-19T09:29:03.567Z,65
2022-12-19T09:39:10.190Z,64
2022-12-19T09:49:20.948Z,66
2022-12-19T09:59:19.163Z,65
2022-12-19T10:09:58.439Z,65
2022-12-19T10:19:32.453Z,66
2022-12-19T10:29:40.967Z,66
2022-12-19T10:39:49.026Z,66
2022-12-19T10:49:57.048Z,64
2022-12-19T11:00:04.565Z,63
2022-12-19T11:10:30.825Z,63
2022-12-19T11:26:07.187Z,62
2022-12-19T11:40:33.208Z,63
2022-12-19T11:50:40.602Z,61
2022-12-19T12:00:48.997Z,60
2022-12-19T12:12:02.411Z,59
2022-12-19T12:31:34.386Z,58
2022-12-19T12:41:15.155Z,60
2022-12-19T12:51:23.272Z,60
2022-12-19T13:01:31.495Z,60
2022-12-19T13:11:39.489Z,61
2022-12-19T13:21:47.534Z,61
2022-12-19T13:31:48.139Z,61
2022-12-19T13:41:57.457Z,61
2022-12-19T13:52:05.680Z,61
2022-12-19T14:02:14.106Z,61
2022-12-19T14:13:37.808Z,62
2022-12-19T14:22:29.835Z,62
2022-12-19T14:33:41.109Z,62
2022-12-19T14:43:30.313Z,65
2022-12-19T14:54:19.291Z,67
2022-12-19T15:02:56.932Z,69
2022-12-19T15:14:55.846Z,69
2022-12-19T15:23:10.447Z,69
2022-12-19T15:33:17.467Z,71
2022-12-19T15:44:01.668Z,72
2022-12-19T15:53:40.135Z,73
2022-12-19T16:03:38.334Z,73
2022-12-19T16:13:46.046Z,76
2022-12-19T16:23:53.888Z,78
2022-12-19T16:34:02.651Z,79
2022-12-19T16:44:14.114Z,80
2022-12-19T16:54:18.701Z,81
2022-12-19T17:04:26.586Z,81
2022-12-19T17:14:34.063Z,82
2022-12-19T17:24:41.958Z,82
2022-12-19T17:34:49.948Z,81
2022-12-19T17:44:58.055Z,81
2022-12-19T17:55:10.384Z,81
2022-12-19T18:05:12.524Z,80
2022-12-19T18:15:20.524Z,80
2022-12-19T18:25:28.517Z,80
2022-12-19T18:35:36.582Z,80
2022-12-19T18:45:44.546Z,79
2022-12-19T18:55:52.718Z,78
2022-12-19T19:06:02.746Z,79
2022-12-19T19:16:13.059Z,80
2022-12-19T19:26:11.549Z,76
2022-12-19T19:36:19.671Z,74
2022-12-19T19:46:28.653Z,78
2022-12-19T19:56:36.968Z,77
2022-12-19T20:16:41.836Z,74
2022-12-19T20:26:52.481Z,74
2022-12-19T20:36:51.433Z,74
2022-12-19T20:47:06.263Z,74
2022-12-19T21:07:08.583Z,78
2022-12-19T21:17:16.680Z,79
2022-12-19T21:27:24.597Z,79
2022-12-19T21:37:34.965Z,79
2022-12-19T21:47:39.658Z,79
2022-12-19T21:57:47.778Z,80
2022-12-19T22:07:56.954Z,79
2022-12-19T22:18:05.031Z,79
2022-12-19T22:28:13.048Z,80
2022-12-19T22:38:25.152Z,80
2022-12-19T22:48:22.042Z,80
2022-12-19T22:58:32.532Z,80
2022-12-19T23:08:30.761Z,80
2022-12-19T23:18:38.710Z,80
2022-12-19T23:28:46.589Z,80
2022-12-19T23:38:56.369Z,80
2022-12-19T23:49:04.231Z,81
2022-12-19T23:59:05.406Z,80
